This is the latest recevied weather packets stored in our database for station/object N9CQL. If no packets are shown the sender has not sent any weather packets the latest 1 day(s).
| Time | Temp. | Humidity | Pressure | Rain* | Wind** | Luminosity | Snow |
|---|---|---|---|---|---|---|---|
| 1836274691 | 23.33° C | 73% | 1015.8 hPa | 0 mm | 0 m/s | 0 W/m² | - |
| 1836274543 | 23.33° C | 73% | 1015.9 hPa | 0 mm | 0 m/s | 0 W/m² | - |
| 1836274389 | 23.33° C | 73% | 1015.7 hPa | 0 mm | 0 m/s | 0 W/m² | - |
| 1836274242 | 23.33° C | 73% | 1015.8 hPa | 0 mm | 0 m/s | 0 W/m² | - |
| 1836274087 | 23.89° C | 73% | 1015.8 hPa | 0 mm | 0 m/s | 0 W/m² | - |
| 1778032933 | 11.67° C | 49% | 1008.5 hPa | 0 mm | 0 m/s | 0 W/m² | - |
| 1778032630 | 11.67° C | 46% | 1008.2 hPa | 0 mm | 0 m/s | 0 W/m² | - |
| 1778032327 | 11.67° C | 46% | 1008.1 hPa | 0 mm | 0 m/s | 0 W/m² | - |
| 1778032024 | 11.67° C | 49% | 1008 hPa | 0 mm | 0 m/s | 0 W/m² | - |
| 1778031720 | 11.67° C | 48% | 1007.9 hPa | 0 mm | 0 m/s | 0 W/m² | - |
| 1778031418 | 11.67° C | 47% | 1007.8 hPa | 0 mm | 0 m/s | 0 W/m² | - |
| 1778031115 | 11.67° C | 49% | 1007.9 hPa | 0 mm | 0 m/s | 0 W/m² | - |
| 1778030811 | 11.67° C | 46% | 1007.6 hPa | 0 mm | 0 m/s | 0 W/m² | - |
| 1778030508 | 12.22° C | 46% | 1007.6 hPa | 0 mm | 0 m/s | 0 W/m² | - |
| 1778030205 | 12.22° C | 45% | 1007.6 hPa | 0 mm | 0 m/s | 0 W/m² | - |
| 1778029901 | 12.22° C | 45% | 1007.7 hPa | 0 mm | 0 m/s | 0 W/m² | - |
| 1778029600 | 12.22° C | 45% | 1007.4 hPa | 0 mm | 0 m/s | 0 W/m² | - |
| 1778029297 | 12.78° C | 42% | 1007.4 hPa | 0 mm | 0 m/s | 0 W/m² | - |
| 1778028994 | 12.78° C | 42% | 1007.3 hPa | 0 mm | 0 m/s | 0 W/m² | - |
| 1778028691 | 12.78° C | 41% | 1007.3 hPa | 0 mm | 0 m/s | 0 W/m² | - |
| 1778028387 | 12.78° C | 42% | 1007.3 hPa | 0 mm | 0 m/s | 0 W/m² | - |
| 1778028084 | 12.78° C | 41% | 1007.2 hPa | 0 mm | 0 m/s | 0 W/m² | - |
| 1778027780 | 12.78° C | 40% | 1007.4 hPa | 0 mm | 0 m/s | 1 W/m² | - |
| 1778027477 | 12.78° C | 41% | 1007.1 hPa | 0 mm | 0 m/s | 3 W/m² | - |
| 1778027173 | 12.78° C | 42% | 1007.2 hPa | 0 mm | 0 m/s | 4 W/m² | - |
* Rain latest hour (hover to see other rain measurements)
** Current wind speed in m/s (hover to see current wind gust speed)